createdAt,value
2022-11-18T00:01:24.770Z,9.60
2022-11-18T00:03:55.028Z,9.60
2022-11-18T00:06:24.834Z,9.50
2022-11-18T00:08:53.737Z,9.60
2022-11-18T00:11:41.422Z,9.60
2022-11-18T00:14:20.295Z,9.70
2022-11-18T00:16:50.592Z,9.80
2022-11-18T00:19:20.713Z,9.80
2022-11-18T00:21:49.017Z,9.80
2022-11-18T00:24:17.346Z,9.80
2022-11-18T00:26:45.723Z,9.60
2022-11-18T00:29:14.329Z,9.60
2022-11-18T00:31:43.124Z,9.70
2022-11-18T00:34:13.395Z,9.70
2022-11-18T00:36:43.910Z,9.80
2022-11-18T00:39:12.820Z,9.60
2022-11-18T00:41:58.716Z,9.70
2022-11-18T00:44:26.868Z,9.60
2022-11-18T00:46:55.096Z,9.80
2022-11-18T00:49:23.214Z,9.70
2022-11-18T00:51:52.718Z,9.70
2022-11-18T00:54:21.050Z,9.80
2022-11-18T00:56:49.174Z,9.90
2022-11-18T00:59:17.522Z,9.90
2022-11-18T01:01:45.964Z,9.90
2022-11-18T01:04:14.106Z,9.90
2022-11-18T01:06:42.521Z,9.90
2022-11-18T01:09:12.017Z,9.70
2022-11-18T01:12:11.969Z,9.80
2022-11-18T01:14:40.120Z,9.60
2022-11-18T01:17:08.159Z,9.60
2022-11-18T01:19:36.605Z,9.70
2022-11-18T01:22:05.005Z,9.70
2022-11-18T01:24:35.335Z,9.60
2022-11-18T01:27:03.436Z,9.40
2022-11-18T01:29:31.825Z,9.50
2022-11-18T01:34:47.951Z,9.70
2022-11-18T01:37:16.113Z,9.70
2022-11-18T01:39:45.685Z,9.80
2022-11-18T01:42:16.739Z,9.60
2022-11-18T01:44:59.725Z,9.70
2022-11-18T01:47:32.440Z,9.60
2022-11-18T01:50:01.343Z,9.80
2022-11-18T01:52:30.653Z,9.60
2022-11-18T01:55:05.072Z,9.70
2022-11-18T01:57:33.469Z,9.80
2022-11-18T02:00:04.046Z,9.50
2022-11-18T02:02:34.145Z,9.50
2022-11-18T02:05:04.140Z,9.50
2022-11-18T02:07:34.442Z,9.50
2022-11-18T02:10:06.469Z,9.60
2022-11-18T02:12:34.913Z,9.60
2022-11-18T02:15:04.643Z,9.60
2022-11-18T02:17:44.645Z,9.60
2022-11-18T02:20:29.964Z,9.60
2022-11-18T02:23:33.216Z,9.50
2022-11-18T02:26:37.435Z,9.50
2022-11-18T02:29:10.037Z,9.40
2022-11-18T02:31:46.395Z,9.50
2022-11-18T02:34:22.590Z,9.50
2022-11-18T02:36:56.345Z,9.60
2022-11-18T02:39:31.009Z,9.60
2022-11-18T02:42:02.934Z,9.60
2022-11-18T02:44:33.260Z,9.50
2022-11-18T02:47:06.543Z,9.50
2022-11-18T02:49:39.533Z,9.50
2022-11-18T02:52:10.126Z,9.60
2022-11-18T02:54:41.659Z,9.60
2022-11-18T02:57:10.451Z,9.60
2022-11-18T02:59:40.175Z,9.50
2022-11-18T03:02:08.312Z,9.40
2022-11-18T03:04:36.926Z,9.50
2022-11-18T03:07:12.940Z,9.40
2022-11-18T03:09:43.671Z,9.50
2022-11-18T03:12:18.692Z,9.40
2022-11-18T03:14:57.535Z,9.40
2022-11-18T03:17:35.141Z,9.40
2022-11-18T03:20:13.639Z,9.40
2022-11-18T03:22:45.409Z,9.50
2022-11-18T03:25:21.150Z,9.50
2022-11-18T03:27:55.907Z,9.40
2022-11-18T03:30:27.236Z,9.40
2022-11-18T03:33:10.055Z,9.40
2022-11-18T03:35:41.400Z,9.40
2022-11-18T03:38:14.799Z,9.40
2022-11-18T03:40:49.811Z,9.40
2022-11-18T03:43:21.179Z,9.50
2022-11-18T03:45:54.220Z,9.40
2022-11-18T03:48:27.630Z,9.30
2022-11-18T03:51:00.762Z,9.40
2022-11-18T03:53:33.610Z,9.40
2022-11-18T03:56:16.914Z,9.50
2022-11-18T03:58:53.455Z,9.30
2022-11-18T04:01:27.776Z,9.40
2022-11-18T04:03:55.977Z,9.50
2022-11-18T04:06:31.208Z,9.40
2022-11-18T04:09:04.483Z,9.30
2022-11-18T04:11:51.760Z,9.30
2022-11-18T04:14:21.436Z,9.50
2022-11-18T04:16:54.118Z,9.50
2022-11-18T04:19:23.016Z,9.60
2022-11-18T04:21:51.568Z,9.50
2022-11-18T04:24:19.621Z,9.40
2022-11-18T04:26:47.808Z,9.30
2022-11-18T04:29:16.310Z,9.30
2022-11-18T04:31:44.713Z,9.30
2022-11-18T04:34:14.325Z,9.30
2022-11-18T04:36:42.394Z,9.20
2022-11-18T04:39:10.695Z,9.10
2022-11-18T04:41:56.794Z,9.10
2022-11-18T04:44:25.606Z,9.00
2022-11-18T04:46:54.053Z,9.00
2022-11-18T04:49:24.079Z,9.10
2022-11-18T04:51:53.111Z,9.00
2022-11-18T04:54:22.046Z,9.00
2022-11-18T04:56:50.788Z,9.00
2022-11-18T04:59:21.751Z,9.00
2022-11-18T05:01:50.621Z,9.10
2022-11-18T05:04:20.734Z,9.20
2022-11-18T05:06:50.269Z,9.20
2022-11-18T05:09:19.284Z,9.20
2022-11-18T05:12:05.234Z,9.50
2022-11-18T05:14:33.792Z,9.50
2022-11-18T05:17:03.330Z,9.40
2022-11-18T05:19:31.618Z,9.30
2022-11-18T05:22:01.345Z,9.30
2022-11-18T05:24:29.544Z,9.40
2022-11-18T05:26:57.721Z,9.40
2022-11-18T05:29:25.993Z,9.20
2022-11-18T05:31:54.114Z,9.00
2022-11-18T05:34:22.324Z,9.00
2022-11-18T05:36:50.500Z,8.90
2022-11-18T05:39:20.285Z,9.00
2022-11-18T05:42:05.254Z,9.20
2022-11-18T05:44:33.313Z,9.20
2022-11-18T05:47:01.438Z,9.30
2022-11-18T05:49:29.533Z,9.30
2022-11-18T05:51:57.664Z,9.20
2022-11-18T05:54:28.830Z,9.30
2022-11-18T05:56:57.079Z,9.30
2022-11-18T05:59:25.182Z,9.30
2022-11-18T06:01:58.814Z,9.20
2022-11-18T06:04:32.135Z,9.30
2022-11-18T06:07:04.404Z,9.30
2022-11-18T06:09:39.120Z,9.10
2022-11-18T06:12:08.565Z,9.10
2022-11-18T06:14:44.045Z,9.20
2022-11-18T06:17:17.380Z,9.20
2022-11-18T06:19:45.750Z,9.10
2022-11-18T06:22:14.484Z,9.10
2022-11-18T06:24:45.158Z,9.10
2022-11-18T06:27:14.076Z,9.20
2022-11-18T06:29:42.350Z,9.30
2022-11-18T06:32:11.179Z,9.20
2022-11-18T06:34:41.791Z,9.30
2022-11-18T06:37:17.789Z,9.30
2022-11-18T06:39:47.507Z,9.20
2022-11-18T06:42:36.463Z,9.20
2022-11-18T06:45:04.155Z,9.20
2022-11-18T06:47:32.327Z,9.10
2022-11-18T06:50:00.680Z,9.00
2022-11-18T06:52:29.181Z,9.20
2022-11-18T06:54:58.895Z,9.20
2022-11-18T06:57:27.034Z,9.10
2022-11-18T07:00:00.640Z,9.10
2022-11-18T07:02:30.245Z,9.20
2022-11-18T07:04:58.450Z,9.20
2022-11-18T07:07:26.716Z,9.20
2022-11-18T07:09:55.003Z,9.30
2022-11-18T07:12:24.665Z,9.10
2022-11-18T07:14:52.913Z,9.20
2022-11-18T07:17:21.074Z,9.00
2022-11-18T07:19:49.424Z,9.10
2022-11-18T07:22:17.673Z,9.20
2022-11-18T07:24:45.797Z,9.20
2022-11-18T07:27:13.972Z,9.20
2022-11-18T07:29:43.469Z,9.30
2022-11-18T07:32:11.693Z,9.30
2022-11-18T07:34:39.905Z,9.40
2022-11-18T07:37:08.192Z,9.30
2022-11-18T07:39:36.374Z,9.30
2022-11-18T07:42:04.796Z,9.20
2022-11-18T07:44:33.018Z,9.30
2022-11-18T07:47:02.668Z,9.40
2022-11-18T07:49:30.892Z,9.30
2022-11-18T07:51:59.027Z,9.30
2022-11-18T07:54:27.125Z,9.30
2022-11-18T07:56:55.215Z,9.20
2022-11-18T07:59:23.321Z,9.30
2022-11-18T08:01:51.565Z,9.40
2022-11-18T08:04:21.253Z,9.30
2022-11-18T08:06:49.424Z,9.20
2022-11-18T08:09:17.772Z,9.30
2022-11-18T08:11:46.183Z,9.20
2022-11-18T08:14:14.426Z,9.30
2022-11-18T08:16:42.682Z,9.20
2022-11-18T08:19:11.144Z,9.20
2022-11-18T08:21:40.704Z,9.20
2022-11-18T08:24:11.330Z,9.40
2022-11-18T08:26:39.632Z,9.30
2022-11-18T08:29:07.774Z,9.40
2022-11-18T08:31:36.004Z,9.30
2022-11-18T08:34:06.054Z,9.40
2022-11-18T08:36:36.998Z,9.40
2022-11-18T08:39:08.575Z,9.40
2022-11-18T08:41:39.572Z,9.40
2022-11-18T08:44:09.653Z,9.40
2022-11-18T08:46:37.823Z,9.60
2022-11-18T08:49:06.401Z,9.60
2022-11-18T08:51:34.541Z,9.60
2022-11-18T08:54:02.754Z,9.60
2022-11-18T08:56:32.328Z,9.60
2022-11-18T08:59:00.547Z,9.50
2022-11-18T09:01:28.807Z,9.50
2022-11-18T09:03:57.762Z,9.40
2022-11-18T09:06:26.662Z,9.40
2022-11-18T09:08:54.967Z,9.40
2022-11-18T09:11:24.710Z,9.40
2022-11-18T09:16:44.502Z,9.50
2022-11-18T09:19:40.011Z,9.60
2022-11-18T09:22:01.722Z,9.40
2022-11-18T09:24:30.049Z,9.40
2022-11-18T09:26:58.507Z,9.50
2022-11-18T09:29:28.098Z,9.60
2022-11-18T09:31:56.541Z,9.70
2022-11-18T09:34:25.381Z,9.70
2022-11-18T09:36:56.028Z,9.70
2022-11-18T09:39:25.404Z,9.50
2022-11-18T09:42:03.117Z,9.50
2022-11-18T09:44:51.525Z,9.60
2022-11-18T09:47:28.302Z,9.60
2022-11-18T09:49:58.961Z,9.60
2022-11-18T09:52:35.754Z,9.60
2022-11-18T09:55:12.735Z,9.60
2022-11-18T09:57:44.796Z,9.60
2022-11-18T10:00:19.093Z,9.60
2022-11-18T10:02:53.590Z,9.60
2022-11-18T10:05:24.352Z,9.70
2022-11-18T10:08:04.493Z,9.80
2022-11-18T10:10:42.696Z,9.80
2022-11-18T10:13:20.829Z,9.80
2022-11-18T10:16:00.220Z,10.00
2022-11-18T10:21:30.255Z,10.10
2022-11-18T10:24:03.744Z,10.00
2022-11-18T10:26:36.057Z,10.10
2022-11-18T10:29:07.611Z,10.20
2022-11-18T10:31:39.331Z,10.20
2022-11-18T10:34:11.495Z,10.20
2022-11-18T10:36:39.720Z,10.30
2022-11-18T10:39:10.635Z,10.40
2022-11-18T10:41:43.946Z,10.60
2022-11-18T10:44:37.083Z,10.60
2022-11-18T10:47:26.778Z,10.70
2022-11-18T10:49:56.908Z,10.70
2022-11-18T10:52:25.806Z,10.70
2022-11-18T10:55:23.407Z,10.60
2022-11-18T10:57:59.398Z,10.50
2022-11-18T11:00:43.023Z,10.60
2022-11-18T11:03:35.234Z,10.40
2022-11-18T11:06:32.462Z,10.50
2022-11-18T11:09:07.643Z,10.50
2022-11-18T11:11:37.572Z,10.60
2022-11-18T11:14:23.414Z,10.60
2022-11-18T11:17:00.611Z,10.50
2022-11-18T11:19:49.234Z,10.60
2022-11-18T11:22:18.221Z,10.90
2022-11-18T11:24:46.819Z,10.90
2022-11-18T11:30:24.139Z,10.80
2022-11-18T11:33:23.274Z,10.70
2022-11-18T11:36:16.820Z,10.80
2022-11-18T11:39:01.303Z,10.80
2022-11-18T11:41:42.114Z,10.90
2022-11-18T11:44:35.483Z,10.80
2022-11-18T11:47:31.689Z,10.80
2022-11-18T11:50:04.003Z,10.80
2022-11-18T11:52:47.652Z,10.90
2022-11-18T11:55:24.198Z,11.00
2022-11-18T11:58:18.077Z,10.90
2022-11-18T12:00:55.376Z,10.90
2022-11-18T12:03:50.288Z,10.90
2022-11-18T12:06:20.379Z,11.00
2022-11-18T12:09:04.736Z,11.00
2022-11-18T12:11:40.054Z,10.90
2022-11-18T12:14:14.163Z,11.00
2022-11-18T12:16:49.034Z,10.90
2022-11-18T12:19:20.029Z,11.10
2022-11-18T12:22:04.081Z,11.20
2022-11-18T12:24:36.566Z,11.00
2022-11-18T12:27:14.274Z,11.00
2022-11-18T12:29:59.984Z,10.90
2022-11-18T12:32:31.343Z,10.90
2022-11-18T12:35:02.658Z,10.80
2022-11-18T12:37:45.157Z,10.70
2022-11-18T12:40:36.688Z,10.60
2022-11-18T12:43:24.223Z,10.60
2022-11-18T12:45:59.832Z,10.70
2022-11-18T12:48:45.751Z,10.70
2022-11-18T12:51:42.797Z,10.90
2022-11-18T12:54:36.226Z,11.30
2022-11-18T12:57:16.618Z,11.50
2022-11-18T12:59:44.842Z,11.60
2022-11-18T13:02:24.883Z,11.90
2022-11-18T13:05:07.844Z,12.00
2022-11-18T13:08:01.690Z,12.00
2022-11-18T13:10:33.532Z,11.70
2022-11-18T13:13:03.985Z,11.80
2022-11-18T13:15:49.895Z,11.80
2022-11-18T13:18:20.397Z,11.70
2022-11-18T13:20:56.616Z,11.60
2022-11-18T13:23:47.368Z,11.50
2022-11-18T13:26:21.562Z,11.30
2022-11-18T13:29:15.257Z,11.30
2022-11-18T13:31:53.932Z,11.20
2022-11-18T13:34:23.573Z,11.20
2022-11-18T13:36:53.390Z,11.10
2022-11-18T13:39:24.559Z,11.00
2022-11-18T13:42:03.238Z,10.90
2022-11-18T13:44:34.541Z,11.00
2022-11-18T13:47:10.966Z,10.90
2022-11-18T13:49:50.608Z,11.00
2022-11-18T13:52:25.307Z,11.10
2022-11-18T13:54:54.824Z,11.00
2022-11-18T13:57:26.018Z,11.10
2022-11-18T13:59:56.545Z,11.10
2022-11-18T14:02:24.898Z,11.30
2022-11-18T14:04:57.172Z,11.20
2022-11-18T14:07:31.689Z,11.10
2022-11-18T14:10:02.036Z,11.10
2022-11-18T14:12:32.537Z,11.00
2022-11-18T14:15:22.734Z,10.70
2022-11-18T14:17:52.990Z,10.60
2022-11-18T14:20:21.942Z,10.70
2022-11-18T14:22:54.205Z,10.80
2022-11-18T14:25:28.245Z,10.70
2022-11-18T14:27:58.744Z,10.80
2022-11-18T14:30:36.948Z,10.70
2022-11-18T14:33:14.863Z,10.60
2022-11-18T14:35:45.491Z,10.70
2022-11-18T14:38:36.550Z,10.90
2022-11-18T14:41:07.523Z,11.10
2022-11-18T14:43:35.637Z,11.10
2022-11-18T14:46:08.468Z,11.20
2022-11-18T14:48:36.551Z,11.20
2022-11-18T14:51:05.098Z,11.30
2022-11-18T14:53:33.280Z,11.30
2022-11-18T14:56:01.473Z,11.20
2022-11-18T14:58:29.623Z,11.20
2022-11-18T15:00:57.853Z,11.00
2022-11-18T15:03:28.313Z,10.90
2022-11-18T15:05:58.230Z,10.80
2022-11-18T15:08:26.426Z,10.70
2022-11-18T15:10:54.502Z,10.50
2022-11-18T15:13:22.665Z,10.70
2022-11-18T15:15:50.863Z,10.40
2022-11-18T15:18:19.056Z,10.50
2022-11-18T15:20:48.598Z,10.50
2022-11-18T15:23:16.855Z,10.60
2022-11-18T15:25:45.094Z,10.60
2022-11-18T15:28:13.256Z,10.50
2022-11-18T15:30:41.388Z,10.50
2022-11-18T15:33:09.528Z,10.60
2022-11-18T15:35:37.657Z,10.60
2022-11-18T15:38:07.193Z,10.60
2022-11-18T15:40:35.372Z,10.60
2022-11-18T15:43:04.124Z,10.50
2022-11-18T15:45:32.321Z,10.40
2022-11-18T15:48:00.458Z,10.50
2022-11-18T15:50:28.555Z,10.50
2022-11-18T15:52:57.545Z,10.40
2022-11-18T15:55:27.054Z,10.40
2022-11-18T15:57:55.307Z,10.40
2022-11-18T16:00:23.622Z,10.30
2022-11-18T16:02:52.017Z,10.20
2022-11-18T16:05:20.281Z,10.20
2022-11-18T16:07:54.588Z,10.00
2022-11-18T16:10:40.448Z,10.00
2022-11-18T16:13:10.089Z,10.00
2022-11-18T16:15:48.442Z,10.10
2022-11-18T16:18:19.738Z,10.10
2022-11-18T16:20:48.038Z,9.90
2022-11-18T16:23:16.240Z,9.90
2022-11-18T16:25:46.291Z,9.80
2022-11-18T16:28:15.819Z,9.80
2022-11-18T16:31:06.873Z,9.80
2022-11-18T16:33:35.258Z,9.80
2022-11-18T16:36:03.473Z,9.70
2022-11-18T16:38:31.710Z,9.60
2022-11-18T16:41:01.326Z,9.70
2022-11-18T16:43:31.272Z,9.70
2022-11-18T16:45:59.372Z,9.60
2022-11-18T16:48:27.549Z,9.70
2022-11-18T16:51:08.809Z,9.60
2022-11-18T16:53:36.974Z,9.70
2022-11-18T16:56:05.260Z,9.70
2022-11-18T16:58:34.786Z,9.70
2022-11-18T17:01:18.998Z,9.70
2022-11-18T17:03:52.215Z,9.80
2022-11-18T17:06:20.558Z,9.70
2022-11-18T17:08:48.987Z,10.00
2022-11-18T17:11:18.016Z,10.10
2022-11-18T17:13:47.712Z,10.10
2022-11-18T17:16:18.113Z,10.00
2022-11-18T17:18:47.169Z,10.00
2022-11-18T17:21:17.992Z,9.90
2022-11-18T17:23:46.899Z,9.90
2022-11-18T17:26:16.579Z,9.80
2022-11-18T17:28:45.025Z,9.80
2022-11-18T17:31:16.915Z,9.70
2022-11-18T17:33:45.825Z,9.60
2022-11-18T17:36:15.761Z,9.50
2022-11-18T17:38:46.212Z,9.60
2022-11-18T17:41:30.445Z,9.70
2022-11-18T17:43:58.698Z,9.80
2022-11-18T17:46:31.025Z,9.70
2022-11-18T17:49:05.033Z,9.80
2022-11-18T17:51:33.520Z,9.90
2022-11-18T17:54:01.689Z,9.80
2022-11-18T17:56:29.838Z,9.70
2022-11-18T17:58:58.030Z,9.70
2022-11-18T18:01:27.605Z,9.60
2022-11-18T18:03:55.778Z,9.60
2022-11-18T18:06:24.647Z,9.60
2022-11-18T18:08:57.380Z,9.50
2022-11-18T18:11:26.183Z,9.50
2022-11-18T18:14:12.181Z,9.40
2022-11-18T18:16:43.419Z,9.40
2022-11-18T18:19:13.855Z,9.40
2022-11-18T18:21:42.076Z,9.30
2022-11-18T18:24:11.037Z,9.10
2022-11-18T18:26:39.596Z,9.20
2022-11-18T18:29:08.436Z,9.30
2022-11-18T18:31:37.846Z,9.30
2022-11-18T18:34:07.693Z,9.30
2022-11-18T18:36:36.083Z,9.20
2022-11-18T18:39:04.304Z,9.10
2022-11-18T18:41:32.994Z,9.10
2022-11-18T18:44:02.274Z,9.00
2022-11-18T18:46:30.753Z,8.90
2022-11-18T18:49:04.958Z,9.10
2022-11-18T18:51:37.627Z,9.10
2022-11-18T18:54:07.021Z,9.10
2022-11-18T18:56:35.684Z,9.10
2022-11-18T18:59:03.981Z,9.10
2022-11-18T19:01:33.626Z,9.00
2022-11-18T19:04:03.356Z,8.90
2022-11-18T19:09:23.284Z,9.00
2022-11-18T19:12:09.552Z,9.10
2022-11-18T19:14:37.795Z,9.00
2022-11-18T19:17:10.582Z,9.00
2022-11-18T19:19:57.384Z,9.10
2022-11-18T19:22:25.759Z,9.00
2022-11-18T19:24:55.910Z,9.10
2022-11-18T19:27:24.728Z,9.10
2022-11-18T19:29:52.985Z,9.20
2022-11-18T19:32:21.333Z,9.00
2022-11-18T19:34:49.471Z,9.00
2022-11-18T19:37:17.645Z,8.90
2022-11-18T19:39:45.855Z,8.90
2022-11-18T19:42:15.530Z,9.00
2022-11-18T19:44:43.748Z,9.20
2022-11-18T19:47:12.055Z,9.20
2022-11-18T19:49:40.233Z,9.20
2022-11-18T19:52:08.408Z,9.30
2022-11-18T19:54:36.813Z,9.30
2022-11-18T19:57:05.132Z,9.30
2022-11-18T19:59:35.003Z,9.20
2022-11-18T20:02:03.413Z,9.10
2022-11-18T20:04:31.839Z,9.20
2022-11-18T20:07:00.297Z,9.30
2022-11-18T20:09:28.660Z,9.30
2022-11-18T20:11:56.943Z,9.20
2022-11-18T20:14:25.525Z,9.20
2022-11-18T20:16:55.234Z,9.10
2022-11-18T20:19:25.747Z,9.00
2022-11-18T20:21:53.963Z,9.00
2022-11-18T20:24:22.262Z,8.80
2022-11-18T20:26:50.820Z,8.70
2022-11-18T20:29:19.352Z,8.90
2022-11-18T20:31:47.676Z,9.10
2022-11-18T20:34:17.323Z,9.10
2022-11-18T20:36:46.516Z,9.20
2022-11-18T20:39:16.357Z,9.10
2022-11-18T20:42:04.981Z,8.90
2022-11-18T20:44:33.411Z,9.00
2022-11-18T20:47:01.615Z,9.00
2022-11-18T20:49:31.408Z,8.90
2022-11-18T20:51:59.535Z,9.10
2022-11-18T20:54:28.202Z,9.10
2022-11-18T20:56:57.994Z,9.10
2022-11-18T20:59:28.218Z,9.20
2022-11-18T21:01:57.109Z,9.00
2022-11-18T21:04:25.428Z,9.00
2022-11-18T21:06:59.052Z,8.90
2022-11-18T21:09:31.655Z,8.90
2022-11-18T21:12:00.067Z,8.80
2022-11-18T21:14:27.331Z,8.90
2022-11-18T21:16:58.043Z,8.90
2022-11-18T21:19:27.630Z,8.70
2022-11-18T21:21:56.706Z,8.80
2022-11-18T21:24:28.229Z,8.80
2022-11-18T21:26:57.889Z,8.80
2022-11-18T21:29:28.814Z,8.90
2022-11-18T21:31:57.921Z,9.00
2022-11-18T21:34:26.240Z,8.90
2022-11-18T21:36:55.344Z,8.90
2022-11-18T21:39:26.047Z,8.90
2022-11-18T21:41:56.834Z,8.90
2022-11-18T21:44:28.102Z,8.70
2022-11-18T21:46:56.950Z,8.70
2022-11-18T21:49:25.249Z,8.80
2022-11-18T21:51:53.535Z,8.70
2022-11-18T21:54:21.680Z,8.70
2022-11-18T21:56:51.196Z,8.80
2022-11-18T21:59:19.520Z,8.80
2022-11-18T22:01:47.771Z,9.00
2022-11-18T22:04:36.906Z,9.00
2022-11-18T22:07:05.368Z,8.80
2022-11-18T22:09:36.691Z,8.80
2022-11-18T22:12:07.875Z,9.00
2022-11-18T22:14:36.537Z,8.80
2022-11-18T22:17:05.448Z,8.70
2022-11-18T22:19:33.666Z,8.60
2022-11-18T22:22:01.905Z,8.50
2022-11-18T22:24:30.078Z,8.60
2022-11-18T22:26:58.634Z,8.40
2022-11-18T22:29:28.341Z,8.50
2022-11-18T22:31:57.190Z,8.50
2022-11-18T22:34:25.259Z,8.50
2022-11-18T22:36:53.414Z,8.40
2022-11-18T22:39:22.251Z,8.60
2022-11-18T22:42:08.096Z,8.50
2022-11-18T22:44:37.834Z,8.60
2022-11-18T22:47:06.302Z,8.70
2022-11-18T22:49:34.449Z,8.90
2022-11-18T22:52:02.632Z,8.80
2022-11-18T22:54:38.935Z,8.90
2022-11-18T22:57:07.621Z,8.80
2022-11-18T22:59:37.162Z,8.80
2022-11-18T23:02:05.717Z,8.80
2022-11-18T23:04:33.905Z,8.80
2022-11-18T23:07:02.360Z,8.90
2022-11-18T23:09:30.723Z,8.70
2022-11-18T23:12:16.229Z,8.90
2022-11-18T23:14:45.794Z,8.90
2022-11-18T23:17:14.163Z,8.90
2022-11-18T23:19:43.903Z,8.90
2022-11-18T23:22:12.584Z,8.90
2022-11-18T23:24:40.751Z,9.00
2022-11-18T23:27:08.888Z,8.70
2022-11-18T23:29:37.113Z,8.80
2022-11-18T23:32:06.969Z,8.70
2022-11-18T23:34:35.150Z,8.80
2022-11-18T23:37:03.428Z,8.80
2022-11-18T23:39:31.588Z,8.90
2022-11-18T23:41:59.731Z,8.90
2022-11-18T23:44:41.797Z,8.90
2022-11-18T23:47:11.346Z,8.90
2022-11-18T23:49:39.497Z,8.80
2022-11-18T23:52:07.608Z,8.80
2022-11-18T23:54:35.720Z,8.80
2022-11-18T23:57:05.389Z,8.80
2022-11-18T23:59:34.134Z,8.70
